createdAt,value
2019-06-07T03:45:54.896Z,72.10
2019-06-07T03:48:23.883Z,72.40
2019-06-07T03:51:04.307Z,72.60
2019-06-07T03:53:21.588Z,72.60
2019-06-07T03:55:49.639Z,72.80
2019-06-07T03:58:31.235Z,72.60
2019-06-07T04:00:47.533Z,72.80
2019-06-07T04:03:32.803Z,72.60
2019-06-07T04:05:45.371Z,72.70
2019-06-07T04:08:13.522Z,72.90
2019-06-07T04:10:57.894Z,73.00
2019-06-07T04:13:12.373Z,73.30
2019-06-07T04:15:41.464Z,73.40
2019-06-07T04:18:10.652Z,73.20
2019-06-07T04:20:41.300Z,73.20
2019-06-07T04:23:27.166Z,72.80
2019-06-07T04:25:42.408Z,73.00
2019-06-07T04:28:09.183Z,73.40
2019-06-07T04:30:41.789Z,73.70
2019-06-07T04:33:11.068Z,74.10
2019-06-07T04:35:42.874Z,73.90
2019-06-07T04:38:12.821Z,74.10
2019-06-07T04:40:43.531Z,74.00
2019-06-07T04:43:12.100Z,74.00
2019-06-07T04:45:50.066Z,73.80
2019-06-07T04:48:09.952Z,73.90
2019-06-07T04:50:43.485Z,74.50
2019-06-07T04:53:10.627Z,75.10
2019-06-07T04:55:41.611Z,75.30
2019-06-07T04:58:09.287Z,75.20
2019-06-07T05:00:59.303Z,74.60
2019-06-07T05:03:07.073Z,74.20
2019-06-07T05:05:40.909Z,74.30
2019-06-07T05:08:07.379Z,74.20
2019-06-07T05:10:38.102Z,74.70
2019-06-07T05:13:04.833Z,74.30
2019-06-07T05:15:34.574Z,74.50
2019-06-07T05:18:03.360Z,74.70
2019-06-07T05:20:33.637Z,74.80
2019-06-07T05:23:01.216Z,74.30
2019-06-07T05:25:31.751Z,73.90
2019-06-07T05:28:00.870Z,73.50
2019-06-07T05:33:02.990Z,74.10
2019-06-07T05:35:33.084Z,74.10
2019-06-07T05:38:03.954Z,74.50
2019-06-07T05:40:34.934Z,75.00
2019-06-07T05:43:03.974Z,75.40
2019-06-07T05:45:37.506Z,75.30
2019-06-07T05:48:02.883Z,75.30
2019-06-07T05:50:41.998Z,75.50
2019-06-07T05:53:02.587Z,75.20
2019-06-07T05:55:31.211Z,74.80
2019-06-07T05:58:00.476Z,74.50
2019-06-07T06:00:29.435Z,74.70
2019-06-07T06:03:05.329Z,74.40
2019-06-07T06:05:34.485Z,74.70
2019-06-07T06:07:57.144Z,74.80
2019-06-07T06:10:25.234Z,75.10
2019-06-07T06:12:57.215Z,75.20
2019-06-07T06:15:41.656Z,75.10
2019-06-07T06:17:54.918Z,75.00
2019-06-07T06:20:23.059Z,75.50
2019-06-07T06:22:51.284Z,75.70
2019-06-07T06:25:38.658Z,76.20
2019-06-07T06:28:10.216Z,76.30
2019-06-07T06:30:20.876Z,75.90
2019-06-07T06:32:56.897Z,76.20
2019-06-07T06:35:19.501Z,76.60
2019-06-07T06:37:52.950Z,77.30
2019-06-07T06:40:17.735Z,77.40
2019-06-07T06:42:49.088Z,77.40
2019-06-07T06:48:28.567Z,77.90
2019-06-07T06:50:56.646Z,77.60
2019-06-07T06:53:24.627Z,77.50
2019-06-07T06:55:52.687Z,77.90
2019-06-07T06:58:20.741Z,78.70
2019-06-07T07:01:04.964Z,78.10
2019-06-07T07:05:54.164Z,77.30
2019-06-07T07:08:20.059Z,77.40
2019-06-07T07:10:51.074Z,76.60
2019-06-07T07:13:17.736Z,76.40
2019-06-07T07:15:50.012Z,76.50
2019-06-07T07:18:15.416Z,77.10
2019-06-07T07:20:45.259Z,76.50
2019-06-07T07:23:13.142Z,76.50
2019-06-07T07:25:43.509Z,76.60
2019-06-07T07:28:10.821Z,76.10
2019-06-07T07:30:41.970Z,76.00
2019-06-07T07:33:10.560Z,76.00
2019-06-07T07:35:39.221Z,76.20
2019-06-07T07:38:07.426Z,76.30
2019-06-07T07:40:57.175Z,75.90
2019-06-07T07:43:05.497Z,75.60
2019-06-07T07:45:33.494Z,75.40
2019-06-07T07:48:14.646Z,75.10
2019-06-07T07:50:31.313Z,74.90
2019-06-07T07:53:00.673Z,74.40
2019-06-07T07:55:28.923Z,74.40
2019-06-07T07:58:01.798Z,74.40
2019-06-07T08:00:50.400Z,74.00
2019-06-07T08:03:01.719Z,73.60
2019-06-07T08:05:42.048Z,74.20
2019-06-07T08:08:00.285Z,73.80
2019-06-07T08:10:25.752Z,74.20
2019-06-07T08:13:14.210Z,74.70
2019-06-07T08:15:23.425Z,73.90
2019-06-07T08:17:56.031Z,73.70
2019-06-07T08:20:21.167Z,73.90
2019-06-07T08:22:49.979Z,73.50
2019-06-07T08:25:18.424Z,73.30
2019-06-07T08:27:47.035Z,74.20
2019-06-07T08:30:47.185Z,74.70
2019-06-07T08:32:46.173Z,75.00
2019-06-07T08:36:02.544Z,76.60
2019-06-07T08:40:14.150Z,74.80
2019-06-07T08:42:59.790Z,74.30
2019-06-07T08:45:13.393Z,73.30
2019-06-07T08:47:41.369Z,73.20
2019-06-07T08:50:10.518Z,73.60
2019-06-07T08:52:38.549Z,73.30
2019-06-07T08:55:06.675Z,73.70
2019-06-07T08:57:34.700Z,73.70
2019-06-07T09:00:15.581Z,73.40
2019-06-07T09:02:33.800Z,73.30
2019-06-07T09:05:11.185Z,73.20
2019-06-07T09:07:31.637Z,73.30
2019-06-07T09:10:03.594Z,73.10
2019-06-07T09:12:29.321Z,73.00
2019-06-07T09:15:12.127Z,73.00
2019-06-07T09:17:26.998Z,73.30
2019-06-07T09:19:56.257Z,73.70
2019-06-07T09:22:24.663Z,73.50
2019-06-07T09:24:52.645Z,73.80
2019-06-07T09:27:20.792Z,74.80
2019-06-07T09:29:48.860Z,75.40
2019-06-07T09:32:18.631Z,74.10
2019-06-07T09:34:46.770Z,73.40
2019-06-07T09:38:03.121Z,72.90
2019-06-07T09:39:44.620Z,72.00
2019-06-07T09:42:12.936Z,72.50
2019-06-07T09:44:41.001Z,71.70
2019-06-07T09:47:30.216Z,72.50
2019-06-07T09:49:38.680Z,73.10
2019-06-07T09:52:10.372Z,73.80
2019-06-07T09:55:05.957Z,73.70
2019-06-07T09:57:15.980Z,73.20
2019-06-07T09:59:35.826Z,72.10
2019-06-07T10:02:06.421Z,71.90
2019-06-07T10:04:33.646Z,73.00
2019-06-07T10:07:10.581Z,73.20
2019-06-07T10:12:02.840Z,72.40
2019-06-07T10:14:31.043Z,72.20
2019-06-07T10:16:59.107Z,71.70
2019-06-07T10:19:27.273Z,72.00
2019-06-07T10:21:55.272Z,71.60
2019-06-07T10:24:23.319Z,72.50
2019-06-07T10:26:51.343Z,72.80
2019-06-07T10:29:19.393Z,72.50
2019-06-07T10:31:47.393Z,72.60
2019-06-07T10:34:15.449Z,72.40
2019-06-07T10:36:43.470Z,72.40
2019-06-07T10:39:11.524Z,72.30
2019-06-07T10:41:39.510Z,72.60
2019-06-07T10:44:07.559Z,73.00
2019-06-07T10:46:35.555Z,72.10
2019-06-07T10:49:03.875Z,72.00
2019-06-07T10:51:31.929Z,70.80
2019-06-07T10:53:59.919Z,71.10
2019-06-07T10:56:27.946Z,71.40
2019-06-07T10:58:55.961Z,71.60
2019-06-07T11:01:23.946Z,71.30
2019-06-07T11:03:52.000Z,70.30
2019-06-07T11:06:20.017Z,70.60
2019-06-07T11:08:48.053Z,70.90
2019-06-07T11:11:16.028Z,70.20
2019-06-07T11:13:44.016Z,69.90
2019-06-07T11:16:13.054Z,70.00
2019-06-07T11:18:41.226Z,70.30
2019-06-07T11:21:10.090Z,69.90
2019-06-07T11:23:38.242Z,69.90
2019-06-07T11:26:06.257Z,69.70
2019-06-07T11:28:34.292Z,70.80
2019-06-07T11:31:02.273Z,70.30
2019-06-07T11:33:30.265Z,69.80
2019-06-07T11:35:58.266Z,70.20
2019-06-07T11:38:26.284Z,69.60
2019-06-07T11:40:54.269Z,69.80
2019-06-07T11:43:22.270Z,69.10
2019-06-07T11:45:50.264Z,68.70
2019-06-07T11:48:18.321Z,69.30
2019-06-07T11:50:46.308Z,70.00
2019-06-07T11:53:14.634Z,69.10
2019-06-07T11:55:42.925Z,69.40
2019-06-07T11:58:15.140Z,69.30
2019-06-07T12:00:40.646Z,67.90
2019-06-07T12:03:09.444Z,68.90
2019-06-07T12:05:37.609Z,68.20
2019-06-07T12:08:05.658Z,67.70
2019-06-07T12:10:42.016Z,68.40
2019-06-07T12:13:03.502Z,67.80
2019-06-07T12:15:31.526Z,66.50
2019-06-07T12:17:59.583Z,66.50
2019-06-07T12:20:27.567Z,65.90
2019-06-07T12:22:55.563Z,65.70
2019-06-07T12:25:25.164Z,65.80
2019-06-07T12:27:53.325Z,64.40
2019-06-07T12:30:27.227Z,65.80
2019-06-07T12:32:51.084Z,65.20
2019-06-07T12:35:19.974Z,64.10
2019-06-07T12:37:48.153Z,64.30
2019-06-07T12:40:26.532Z,64.30
2019-06-07T12:42:46.009Z,64.10
2019-06-07T12:45:32.349Z,63.60
2019-06-07T12:47:46.687Z,62.30
2019-06-07T12:50:15.409Z,62.30
2019-06-07T12:52:43.508Z,62.10
2019-06-07T12:55:11.566Z,61.60
2019-06-07T12:57:39.572Z,62.30
2019-06-07T13:00:09.103Z,59.60
2019-06-07T13:02:37.081Z,60.50
2019-06-07T13:05:07.978Z,59.90
2019-06-07T13:07:35.957Z,58.90
2019-06-07T13:10:05.542Z,59.10
2019-06-07T13:12:33.517Z,59.30
2019-06-07T13:15:01.605Z,58.30
2019-06-07T13:17:29.668Z,58.30
2019-06-07T13:19:57.660Z,58.10
2019-06-07T13:22:25.693Z,58.80
2019-06-07T13:24:53.677Z,58.70
2019-06-07T13:27:22.509Z,57.50
2019-06-07T13:29:50.551Z,56.80
2019-06-07T13:32:19.559Z,55.40
2019-06-07T13:34:47.633Z,55.50
2019-06-07T13:37:16.898Z,54.30
2019-06-07T13:39:45.077Z,54.90
2019-06-07T13:42:13.093Z,54.10
2019-06-07T13:44:41.156Z,53.60
2019-06-07T13:47:09.180Z,54.10
2019-06-07T13:49:37.176Z,52.90
2019-06-07T13:52:05.245Z,53.30
2019-06-07T13:54:33.251Z,51.90
2019-06-07T13:57:02.879Z,51.50
2019-06-07T13:59:31.018Z,51.20
2019-06-07T14:01:59.066Z,51.20
2019-06-07T14:04:27.127Z,50.30
2019-06-07T14:06:55.111Z,49.00
2019-06-07T14:09:23.294Z,48.00
2019-06-07T14:11:51.358Z,50.30
2019-06-07T14:14:20.142Z,49.00
2019-06-07T14:16:48.306Z,49.30
2019-06-07T14:19:16.307Z,49.40
2019-06-07T14:21:44.360Z,50.70
2019-06-07T14:24:12.352Z,49.10
2019-06-07T14:26:42.311Z,49.10
2019-06-07T14:29:10.582Z,48.10
2019-06-07T14:31:38.578Z,49.80
2019-06-07T14:34:06.658Z,50.40
2019-06-07T14:36:34.658Z,49.00
2019-06-07T14:39:02.686Z,49.00
2019-06-07T14:41:31.766Z,48.30
2019-06-07T14:43:59.989Z,48.80
2019-06-07T14:46:28.210Z,49.70
2019-06-07T14:48:56.197Z,50.80
2019-06-07T14:51:24.265Z,51.20
2019-06-07T14:53:52.726Z,51.00
2019-06-07T14:56:20.722Z,51.00
2019-06-07T14:58:48.836Z,50.20
2019-06-07T15:01:17.011Z,49.10
2019-06-07T15:03:45.085Z,49.40
2019-06-07T15:06:14.152Z,49.10
2019-06-07T15:08:42.318Z,49.10
2019-06-07T15:11:10.321Z,48.50
2019-06-07T15:13:39.887Z,48.50
2019-06-07T15:16:08.093Z,47.30
2019-06-07T15:18:36.289Z,47.10
2019-06-07T15:21:04.399Z,46.70
2019-06-07T15:23:33.496Z,47.20
2019-06-07T15:26:01.663Z,47.00
2019-06-07T15:28:30.190Z,47.30
2019-06-07T15:30:58.230Z,47.10
2019-06-07T15:33:26.531Z,47.40
2019-06-07T15:35:55.805Z,47.70
2019-06-07T15:38:23.799Z,48.30
2019-06-07T15:40:51.858Z,47.90
2019-06-07T15:43:19.840Z,48.70
2019-06-07T15:45:47.834Z,48.90
2019-06-07T15:48:15.984Z,48.50
2019-06-07T15:50:43.980Z,49.10
2019-06-07T15:53:11.957Z,48.90
2019-06-07T15:55:45.280Z,49.60
2019-06-07T15:58:09.630Z,50.30
2019-06-07T16:00:37.681Z,48.00
2019-06-07T16:03:05.674Z,46.20
2019-06-07T16:05:34.215Z,45.30
2019-06-07T16:08:02.321Z,43.00
2019-06-07T16:10:30.301Z,42.80
2019-06-07T16:13:00.678Z,41.60
2019-06-07T16:15:27.958Z,42.30
2019-06-07T16:17:56.009Z,43.20
2019-06-07T16:20:23.986Z,43.70
2019-06-07T16:22:51.973Z,44.80
2019-06-07T16:25:20.028Z,45.70
2019-06-07T16:27:48.014Z,47.00
2019-06-07T16:30:16.194Z,47.90
2019-06-07T16:32:46.201Z,49.30
2019-06-07T16:35:14.159Z,50.30
2019-06-07T16:37:42.988Z,50.40
2019-06-07T16:40:12.269Z,51.00
2019-06-07T16:42:40.715Z,51.20
2019-06-07T16:45:09.725Z,52.00
2019-06-07T16:47:40.296Z,51.40
2019-06-07T16:50:07.735Z,51.20
2019-06-07T16:52:37.166Z,51.30
2019-06-07T16:55:06.817Z,51.20
2019-06-07T16:57:34.876Z,51.40
2019-06-07T17:00:02.972Z,51.70
2019-06-07T17:02:30.973Z,51.60
2019-06-07T17:04:58.953Z,51.80
2019-06-07T17:07:26.990Z,50.70
2019-06-07T17:09:54.969Z,49.80
2019-06-07T17:12:22.967Z,48.90
2019-06-07T17:14:50.945Z,48.40
2019-06-07T17:17:18.942Z,48.20
2019-06-07T17:19:47.123Z,48.20
2019-06-07T17:22:15.240Z,48.00
2019-06-07T17:24:43.484Z,48.20
2019-06-07T17:27:11.588Z,48.50
2019-06-07T17:29:39.809Z,48.90
2019-06-07T17:32:07.877Z,49.10
2019-06-07T17:34:35.926Z,49.70
2019-06-07T17:37:04.065Z,50.10
2019-06-07T17:39:32.154Z,50.10
2019-06-07T17:42:02.390Z,50.20
2019-06-07T17:44:29.861Z,50.40
2019-06-07T17:46:57.874Z,50.30
2019-06-07T17:49:25.857Z,49.10
2019-06-07T17:51:53.881Z,49.00
2019-06-07T17:54:21.932Z,47.30
2019-06-07T17:56:50.556Z,45.90
2019-06-07T17:59:18.647Z,44.70
2019-06-07T18:02:07.093Z,44.00
2019-06-07T18:04:16.794Z,44.70
2019-06-07T18:06:45.307Z,44.80
2019-06-07T18:09:14.208Z,44.20
2019-06-07T18:11:42.295Z,43.60
2019-06-07T18:14:11.218Z,43.70
2019-06-07T18:16:39.555Z,43.80
2019-06-07T18:19:07.557Z,44.50
2019-06-07T18:21:35.569Z,45.10
2019-06-07T18:24:03.680Z,46.50
2019-06-07T18:26:31.698Z,48.00
2019-06-07T18:28:59.778Z,49.60
2019-06-07T18:31:27.786Z,50.70
2019-06-07T18:33:55.867Z,51.80
2019-06-07T18:36:23.944Z,52.50
2019-06-07T18:38:53.027Z,53.00
2019-06-07T18:41:21.136Z,53.30
2019-06-07T18:43:49.257Z,54.00
2019-06-07T18:46:17.294Z,54.70
2019-06-07T18:48:46.431Z,54.90
2019-06-07T18:51:14.568Z,55.50
2019-06-07T18:53:42.677Z,55.30
2019-06-07T18:56:10.782Z,55.50
2019-06-07T18:58:38.834Z,55.70
2019-06-07T19:01:06.904Z,55.90
2019-06-07T19:03:34.928Z,55.10
2019-06-07T19:06:03.416Z,55.70
2019-06-07T19:08:31.577Z,55.90
2019-06-07T19:10:59.650Z,55.60
2019-06-07T19:13:27.636Z,56.30
2019-06-07T19:15:55.638Z,57.40
2019-06-07T19:18:23.830Z,57.30
2019-06-07T19:20:52.437Z,57.80
2019-06-07T19:23:20.612Z,57.90
2019-06-07T19:25:50.072Z,57.10
2019-06-07T19:28:18.248Z,55.60
2019-06-07T19:30:46.254Z,55.50
2019-06-07T19:33:14.325Z,55.80
2019-06-07T19:35:42.335Z,56.10
2019-06-07T19:38:10.445Z,56.30
2019-06-07T19:40:38.506Z,56.00
2019-06-07T19:43:06.791Z,55.10
2019-06-07T19:45:34.850Z,55.40
2019-06-07T19:48:02.937Z,55.70
2019-06-07T19:50:31.041Z,56.60
2019-06-07T19:52:59.244Z,56.80
2019-06-07T19:55:27.332Z,57.00
2019-06-07T19:57:55.559Z,57.40
2019-06-07T20:00:23.701Z,57.50
2019-06-07T20:02:51.782Z,58.40
2019-06-07T20:05:19.960Z,58.70
2019-06-07T20:07:48.043Z,60.50
2019-06-07T20:10:16.186Z,62.00
2019-06-07T20:12:44.248Z,62.10
2019-06-07T20:15:27.803Z,64.20
2019-06-07T20:17:42.330Z,64.10
2019-06-07T20:20:10.967Z,65.80
2019-06-07T20:22:40.239Z,66.90
2019-06-07T20:25:10.484Z,68.00
2019-06-07T20:27:40.484Z,68.90
2019-06-07T20:30:12.364Z,69.90
2019-06-07T20:32:42.065Z,70.60
2019-06-07T20:35:11.215Z,71.00
2019-06-07T20:37:39.982Z,71.70
2019-06-07T20:40:22.824Z,72.00
2019-06-07T20:42:38.415Z,73.30
2019-06-07T20:45:08.140Z,73.80
2019-06-07T20:47:36.586Z,73.60
2019-06-07T20:50:06.307Z,73.40
2019-06-07T20:52:34.480Z,72.10
2019-06-07T20:55:03.116Z,72.80
2019-06-07T20:57:31.237Z,72.40
2019-06-07T21:00:00.798Z,74.90
2019-06-07T21:02:29.015Z,76.60
2019-06-07T21:04:57.055Z,73.00
2019-06-07T21:07:25.303Z,74.50
2019-06-07T21:09:53.879Z,74.30
2019-06-07T21:12:22.013Z,74.20
2019-06-07T21:14:50.018Z,74.20
2019-06-07T21:17:18.015Z,73.40
2019-06-07T21:19:46.023Z,73.10
2019-06-07T21:22:13.997Z,72.20
2019-06-07T21:24:42.015Z,72.70
2019-06-07T21:27:11.304Z,72.20
2019-06-07T21:29:39.739Z,71.70
2019-06-07T21:32:07.758Z,70.50
2019-06-07T21:34:35.745Z,71.40
2019-06-07T21:37:03.888Z,70.70
2019-06-07T21:39:31.903Z,70.60
2019-06-07T21:41:59.885Z,71.90
2019-06-07T21:44:27.882Z,70.70
2019-06-07T21:46:55.866Z,68.00
2019-06-07T21:49:23.863Z,68.70
2019-06-07T21:51:51.842Z,70.40
2019-06-07T21:54:20.023Z,68.60
2019-06-07T21:56:48.273Z,68.60
2019-06-07T21:59:16.431Z,68.30
2019-06-07T22:01:44.690Z,66.80
2019-06-07T22:04:13.674Z,68.20
2019-06-07T22:06:42.057Z,69.30
2019-06-07T22:09:10.243Z,70.70
2019-06-07T22:11:38.526Z,69.40
2019-06-07T22:14:08.216Z,69.80
2019-06-07T22:16:36.455Z,70.00
2019-06-07T22:19:04.584Z,70.60
2019-06-07T22:21:32.669Z,70.80
2019-06-07T22:24:00.649Z,70.60
2019-06-07T22:26:28.632Z,70.20
2019-06-07T22:28:56.622Z,69.80
2019-06-07T22:31:24.688Z,70.10
2019-06-07T22:33:52.675Z,69.00
2019-06-07T22:36:20.687Z,69.30
2019-06-07T22:38:48.662Z,70.00
2019-06-07T22:41:17.642Z,69.40
2019-06-07T22:43:45.759Z,70.60
2019-06-07T22:46:15.009Z,68.70
2019-06-07T22:48:43.160Z,70.00
2019-06-07T22:51:12.654Z,68.90
2019-06-07T22:53:43.599Z,69.40
2019-06-07T22:56:13.929Z,67.50
2019-06-07T22:58:41.969Z,67.50
2019-06-07T23:01:10.380Z,67.00
2019-06-07T23:03:38.408Z,67.00
2019-06-07T23:06:06.407Z,67.80
2019-06-07T23:08:34.380Z,67.80
2019-06-07T23:11:02.425Z,70.30
2019-06-07T23:13:30.405Z,68.90
2019-06-07T23:15:58.429Z,68.10
2019-06-07T23:18:26.417Z,70.20
2019-06-07T23:20:54.402Z,69.90
2019-06-07T23:23:23.529Z,72.60
2019-06-07T23:25:51.658Z,75.00
2019-06-07T23:28:20.643Z,74.70
